Cartersville, GA

6:39 PM EST on February 08, 2016 (GMT -0500)
Cartersville | | Change Station
CLOSE
Current Station
Airport
Location: Cartersville,
Elevation: 764 ft
Nearby Weather Stations
Active Advisory: Special Statement

Elev 764 ft 34.12 °N, 84.85 °W | Updated 46 minutes ago

Overcast
Overcast
44 °F
Feels Like 42 °F
N
4
Wind Variable Wind from Variable

Today
High -- | Low -- °F
--% Chance of Precip.
Yesterday
High -- | Low -- °F
Precip. -- in
Pressure 29.81 in
Visibility 10.0 miles
Clouds Overcast 9000 ft
Windchill 42 °F
Dew Point 22 °F
Humidity 42%
Rainfall 0.00 in
Snow Depth Not available.
7:31 AM 6:16 PM
New Moon, 0% visible
METAR KVPC 082253Z AUTO VRB03KT 10SM OVC090 07/M06 A2981 RMK AO2 SLP093 T00671056
Pressure 29.81 in
Visibility 10.0 miles
Clouds Overcast 9000 ft
Windchill 42 °F
Dew Point 22 °F
Humidity 42%
Rainfall 0.00 in
Snow Depth Not available.
7:31 AM 6:16 PM
New Moon, 0% visible
METAR KVPC 082253Z AUTO VRB03KT 10SM OVC090 07/M06 A2981 RMK AO2 SLP093 T00671056

10-Day Weather Forecast

Almanac

Astronomy

Feb. 08, 2016 Rise Set
Actual Time
Civil Twilight
Nautical Twilight
Astronomical Twilight
Moon
Length of Visible Light
Length of Day
Tomorrow will be .
, % of the Moon is Illuminated

Today's Extremes

State Highs State Lows

Community

WunderPhotos

Upload Photos

1,891,525 photos uploaded!

WunderBlog® & News

Nearby

Air Quality

  Air Quality AQ Index Pollutant
Not available.

Snow Depth

Station Depth Elevation

Earthquake Activity

City Distance Mag. Time & Date
Minimum magnitude displayed is 2.5.

Coastal Water Temperatures

Place Temperature

Stations

Nearby Weather Stations

Station Location Temp. Windchill Dew Point Humidity Wind Precip. Elev Updated Type
                   

Watches & Warnings

Special Statement
Issued: 4:37 PM EST Feb. 8, 2016 – National Weather Service

... Scattered snow showers and flurries expected across northwest
and west-central Georgia...

A cold airmass along with a series of upper level disturbances
will increase the potential for snow showers or snow flurries on
Tuesday across northwest and west-central Georgia. Accumulations
of 1/2 to 1 inch will be possible across Dade... Walker... Chattooga
and Floyd counties. A dusting to 1/2 inch is possible to the south
and east of these areas... including the Atlanta Metro area. The
best chance to see snow showers and accumulations will be between
10 am and 10 PM Tuesday. Heavier snow accumulations are expected
across the mountains of north Georgia where a Winter Weather
Advisory is currently in effect.

Short bursts of heavier snow could accompany the showers by
Tuesday afternoon which could quickly cover the ground and cause
slick roads... especially bridges and overpasses. By Tuesday
night... areas of black ice could form where residual moisture
freezes as temperatures fall well below freezing.

Stay tuned to the latest forecasts for updates on this evolving
winter weather situation across north Georgia.


Djn